createdAt,value
2023-05-07T00:02:05.113Z,16.70
2023-05-07T00:04:38.091Z,16.70
2023-05-07T00:07:05.520Z,16.70
2023-05-07T00:09:32.737Z,16.70
2023-05-07T00:12:00.300Z,16.60
2023-05-07T00:14:27.436Z,16.60
2023-05-07T00:16:54.441Z,16.60
2023-05-07T00:19:21.554Z,16.60
2023-05-07T00:21:48.515Z,16.60
2023-05-07T00:24:15.446Z,16.60
2023-05-07T00:26:42.617Z,16.60
2023-05-07T00:29:09.601Z,16.60
2023-05-07T00:31:36.686Z,16.60
2023-05-07T00:34:03.760Z,16.60
2023-05-07T00:36:31.537Z,16.60
2023-05-07T00:39:01.248Z,16.50
2023-05-07T00:41:28.221Z,16.50
2023-05-07T00:43:55.228Z,16.40
2023-05-07T00:46:22.714Z,16.40
2023-05-07T00:48:51.043Z,16.40
2023-05-07T00:51:18.761Z,16.30
2023-05-07T00:53:46.413Z,16.30
2023-05-07T00:56:13.434Z,16.20
2023-05-07T00:58:40.584Z,16.20
2023-05-07T01:01:07.677Z,16.10
2023-05-07T01:03:34.769Z,16.10
2023-05-07T01:06:02.779Z,16.10
2023-05-07T01:08:31.086Z,16.10
2023-05-07T01:10:58.553Z,16.20
2023-05-07T01:13:26.346Z,16.20
2023-05-07T01:15:53.595Z,16.30
2023-05-07T01:18:20.643Z,16.30
2023-05-07T01:20:47.626Z,16.30
2023-05-07T01:23:14.826Z,16.30
2023-05-07T01:25:41.808Z,16.30
2023-05-07T01:28:08.764Z,16.30
2023-05-07T01:30:36.567Z,16.30
2023-05-07T01:33:05.675Z,16.30
2023-05-07T01:35:35.429Z,16.30
2023-05-07T01:38:03.681Z,16.30
2023-05-07T01:40:30.642Z,16.30
2023-05-07T01:42:57.698Z,16.30
2023-05-07T01:45:25.281Z,16.30
2023-05-07T01:47:53.090Z,16.20
2023-05-07T01:50:24.463Z,16.30
2023-05-07T01:52:52.074Z,16.20
2023-05-07T01:55:19.370Z,16.20
2023-05-07T01:57:46.932Z,16.20
2023-05-07T02:00:14.104Z,16.30
2023-05-07T02:02:41.401Z,16.20
2023-05-07T02:05:08.591Z,16.30
2023-05-07T02:07:35.552Z,16.20
2023-05-07T02:10:02.696Z,16.30
2023-05-07T02:12:29.688Z,16.30
2023-05-07T02:14:56.685Z,16.30
2023-05-07T02:17:23.692Z,16.30
2023-05-07T02:19:50.781Z,16.30
2023-05-07T02:22:17.762Z,16.30
2023-05-07T02:24:44.713Z,16.20
2023-05-07T02:27:11.676Z,16.20
2023-05-07T02:29:38.648Z,16.20
2023-05-07T02:32:06.138Z,16.30
2023-05-07T02:34:33.130Z,16.30
2023-05-07T02:37:00.360Z,16.30
2023-05-07T02:39:27.316Z,16.30
2023-05-07T02:41:54.288Z,16.30
2023-05-07T02:44:21.357Z,16.30
2023-05-07T02:46:48.305Z,16.30
2023-05-07T02:49:15.256Z,16.20
2023-05-07T02:51:42.556Z,16.20
2023-05-07T02:54:09.479Z,16.30
2023-05-07T02:56:36.726Z,16.20
2023-05-07T02:59:03.684Z,16.20
2023-05-07T03:01:30.830Z,16.20
2023-05-07T03:03:57.991Z,16.20
2023-05-07T03:06:25.077Z,16.20
2023-05-07T03:08:52.110Z,16.10
2023-05-07T03:11:19.203Z,16.10
2023-05-07T03:13:46.427Z,16.10
2023-05-07T03:16:13.571Z,16.10
2023-05-07T03:18:40.620Z,16.20
2023-05-07T03:21:07.623Z,16.10
2023-05-07T03:23:34.642Z,16.10
2023-05-07T03:26:01.783Z,16.10
2023-05-07T03:28:28.760Z,16.10
2023-05-07T03:30:55.859Z,16.20
2023-05-07T03:33:22.938Z,16.20
2023-05-07T03:35:49.956Z,16.20
2023-05-07T03:38:17.090Z,16.20
2023-05-07T03:40:44.037Z,16.20
2023-05-07T03:43:11.083Z,16.20
2023-05-07T03:45:38.090Z,16.20
2023-05-07T03:48:05.343Z,16.10
2023-05-07T03:50:32.361Z,16.10
2023-05-07T03:52:59.318Z,16.10
2023-05-07T03:55:26.689Z,16.10
2023-05-07T03:57:53.780Z,16.10
2023-05-07T04:00:21.484Z,16.10
2023-05-07T04:02:48.759Z,16.20
2023-05-07T04:05:16.701Z,16.20
2023-05-07T04:07:43.738Z,16.20
2023-05-07T04:10:11.582Z,16.10
2023-05-07T04:12:38.778Z,16.20
2023-05-07T04:15:05.961Z,16.20
2023-05-07T04:17:32.980Z,16.20
2023-05-07T04:20:00.004Z,16.20
2023-05-07T04:22:27.067Z,16.20
2023-05-07T04:24:54.025Z,16.20
2023-05-07T04:27:21.669Z,16.20
2023-05-07T04:29:48.616Z,16.20
2023-05-07T04:32:16.074Z,16.20
2023-05-07T04:34:43.077Z,16.20
2023-05-07T04:37:10.052Z,16.20
2023-05-07T04:39:37.029Z,16.10
2023-05-07T04:42:04.409Z,16.00
2023-05-07T04:44:32.653Z,16.00
2023-05-07T04:46:59.711Z,16.00
2023-05-07T04:49:27.018Z,16.10
2023-05-07T04:51:53.967Z,16.10
2023-05-07T04:54:20.921Z,16.10
2023-05-07T04:56:47.891Z,16.10
2023-05-07T04:59:14.980Z,16.20
2023-05-07T05:01:42.004Z,16.20
2023-05-07T05:04:09.208Z,16.20
2023-05-07T05:06:36.213Z,16.30
2023-05-07T05:09:03.200Z,16.30
2023-05-07T05:11:30.532Z,16.30
2023-05-07T05:13:57.911Z,16.30
2023-05-07T05:16:24.990Z,16.30
2023-05-07T05:18:53.401Z,16.30
2023-05-07T05:21:20.405Z,16.30
2023-05-07T05:23:50.407Z,16.40
2023-05-07T05:26:17.459Z,16.40
2023-05-07T05:28:44.444Z,16.40
2023-05-07T05:31:11.475Z,16.40
2023-05-07T05:33:38.425Z,16.40
2023-05-07T05:36:05.637Z,16.40
2023-05-07T05:38:32.593Z,16.50
2023-05-07T05:40:59.587Z,16.50
2023-05-07T05:43:26.619Z,16.50
2023-05-07T05:45:53.687Z,16.50
2023-05-07T05:48:20.968Z,16.50
2023-05-07T05:50:47.997Z,16.50
2023-05-07T05:53:14.999Z,16.50
2023-05-07T05:55:42.940Z,16.60
2023-05-07T05:58:10.180Z,16.60
2023-05-07T06:00:37.205Z,16.60
2023-05-07T06:03:04.281Z,16.70
2023-05-07T06:05:31.438Z,16.70
2023-05-07T06:07:58.474Z,16.80
2023-05-07T06:10:25.579Z,16.80
2023-05-07T06:12:52.926Z,16.80
2023-05-07T06:15:20.168Z,16.90
2023-05-07T06:17:47.163Z,16.90
2023-05-07T06:20:14.319Z,17.00
2023-05-07T06:22:41.367Z,17.10
2023-05-07T06:25:08.623Z,17.10
2023-05-07T06:27:35.621Z,17.10
2023-05-07T06:30:02.667Z,17.10
2023-05-07T06:32:29.725Z,17.20
2023-05-07T06:34:57.059Z,17.20
2023-05-07T06:37:24.019Z,17.30
2023-05-07T06:39:50.981Z,17.30
2023-05-07T06:42:17.940Z,17.30
2023-05-07T06:44:44.891Z,17.30
2023-05-07T06:47:13.827Z,17.40
2023-05-07T06:49:42.569Z,17.40
2023-05-07T06:52:09.598Z,17.40
2023-05-07T06:54:36.874Z,17.40
2023-05-07T06:57:03.934Z,17.50
2023-05-07T06:59:31.061Z,17.50
2023-05-07T07:01:58.048Z,17.50
2023-05-07T07:04:25.786Z,17.50
2023-05-07T07:06:55.815Z,17.50
2023-05-07T07:09:24.014Z,17.60
2023-05-07T07:11:51.266Z,17.60
2023-05-07T07:14:18.355Z,17.60
2023-05-07T07:16:45.295Z,17.60
2023-05-07T07:19:12.306Z,17.70
2023-05-07T07:21:39.336Z,17.70
2023-05-07T07:24:06.381Z,17.70
2023-05-07T07:26:33.386Z,17.70
2023-05-07T07:29:00.324Z,17.70
2023-05-07T07:31:27.412Z,17.80
2023-05-07T07:33:54.470Z,17.80
2023-05-07T07:36:22.089Z,17.90
2023-05-07T07:38:50.538Z,17.90
2023-05-07T07:41:17.502Z,17.90
2023-05-07T07:43:44.511Z,17.90
2023-05-07T07:46:12.471Z,18.10
2023-05-07T07:48:39.566Z,18.10
2023-05-07T07:51:06.814Z,18.10
2023-05-07T07:53:33.783Z,18.20
2023-05-07T07:56:01.880Z,18.20
2023-05-07T07:58:29.875Z,18.20
2023-05-07T08:00:57.263Z,18.30
2023-05-07T08:03:24.446Z,18.30
2023-05-07T08:05:52.427Z,18.40
2023-05-07T08:08:19.826Z,18.40
2023-05-07T08:10:46.984Z,18.50
2023-05-07T08:13:14.204Z,18.60
2023-05-07T08:15:41.288Z,18.70
2023-05-07T08:18:08.249Z,18.80
2023-05-07T08:20:38.367Z,18.80
2023-05-07T08:23:05.510Z,18.90
2023-05-07T08:25:33.890Z,18.90
2023-05-07T08:28:00.958Z,19.00
2023-05-07T08:30:28.245Z,19.10
2023-05-07T08:32:55.409Z,19.10
2023-05-07T08:35:22.453Z,19.20
2023-05-07T08:37:49.448Z,19.20
2023-05-07T08:40:16.750Z,19.20
2023-05-07T08:42:45.314Z,19.30
2023-05-07T08:45:12.537Z,19.30
2023-05-07T08:47:47.930Z,19.30
2023-05-07T08:50:14.903Z,19.30
2023-05-07T08:52:44.630Z,19.40
2023-05-07T08:55:11.960Z,19.30
2023-05-07T08:57:40.177Z,19.30
2023-05-07T09:00:08.608Z,19.30
2023-05-07T09:02:38.505Z,19.30
2023-05-07T09:05:05.887Z,19.30
2023-05-07T09:07:39.579Z,19.30
2023-05-07T09:10:07.012Z,19.30
2023-05-07T09:12:36.507Z,19.30
2023-05-07T09:15:04.265Z,19.30
2023-05-07T09:17:31.299Z,19.30
2023-05-07T09:20:02.945Z,19.30
2023-05-07T09:22:32.684Z,19.30
2023-05-07T09:24:59.660Z,19.30
2023-05-07T09:27:28.000Z,19.20
2023-05-07T09:29:54.998Z,19.20
2023-05-07T09:32:22.042Z,19.20
2023-05-07T09:34:49.171Z,19.20
2023-05-07T09:37:17.070Z,19.20
2023-05-07T09:39:45.734Z,19.10
2023-05-07T09:42:13.151Z,19.20
2023-05-07T09:44:40.378Z,19.10
2023-05-07T09:47:07.798Z,19.10
2023-05-07T09:49:37.086Z,19.10
2023-05-07T09:52:07.282Z,19.00
2023-05-07T09:54:34.989Z,19.00
2023-05-07T09:57:05.288Z,19.00
2023-05-07T09:59:36.397Z,19.00
2023-05-07T10:02:05.168Z,19.00
2023-05-07T10:04:32.973Z,19.00
2023-05-07T10:07:00.369Z,19.00
2023-05-07T10:09:27.896Z,19.00
2023-05-07T10:11:55.105Z,19.00
2023-05-07T10:14:22.733Z,18.90
2023-05-07T10:16:49.899Z,18.90
2023-05-07T10:19:17.781Z,18.90
2023-05-07T10:21:52.570Z,18.90
2023-05-07T10:24:32.942Z,19.00
2023-05-07T10:27:00.388Z,18.90
2023-05-07T10:29:27.318Z,18.90
2023-05-07T10:31:59.636Z,19.00
2023-05-07T10:34:29.248Z,18.90
2023-05-07T10:36:56.859Z,19.00
2023-05-07T10:39:24.172Z,18.90
2023-05-07T10:41:51.326Z,19.00
2023-05-07T10:44:29.268Z,19.00
2023-05-07T10:47:10.712Z,19.00
2023-05-07T10:49:38.276Z,19.00
2023-05-07T10:52:18.489Z,19.10
2023-05-07T10:54:46.092Z,19.00
2023-05-07T10:57:31.640Z,19.10
2023-05-07T10:59:59.348Z,19.10
2023-05-07T11:02:46.465Z,19.10
2023-05-07T11:05:23.313Z,19.10
2023-05-07T11:07:57.287Z,19.10
2023-05-07T11:10:24.501Z,19.10
2023-05-07T11:12:52.404Z,19.10
2023-05-07T11:15:35.609Z,19.10
2023-05-07T11:18:02.692Z,19.10
2023-05-07T11:21:08.247Z,19.10
2023-05-07T11:23:36.749Z,19.10
2023-05-07T11:26:04.892Z,19.10
2023-05-07T11:28:32.389Z,19.10
2023-05-07T11:30:59.515Z,19.10
2023-05-07T11:33:26.967Z,19.10
2023-05-07T11:35:57.292Z,19.10
2023-05-07T11:38:24.228Z,19.10
2023-05-07T11:40:52.261Z,19.10
2023-05-07T11:43:19.261Z,19.10
2023-05-07T11:45:47.649Z,19.20
2023-05-07T11:48:15.200Z,19.20
2023-05-07T11:51:13.820Z,19.20
2023-05-07T11:53:41.897Z,19.20
2023-05-07T11:56:09.089Z,19.20
2023-05-07T11:58:36.091Z,19.20
2023-05-07T12:01:03.081Z,19.20
2023-05-07T12:03:32.031Z,19.20
2023-05-07T12:06:02.972Z,19.20
2023-05-07T12:08:30.031Z,19.30
2023-05-07T12:10:57.121Z,19.30
2023-05-07T12:13:26.250Z,19.30
2023-05-07T12:15:57.436Z,19.30
2023-05-07T12:18:24.572Z,19.30
2023-05-07T12:20:52.019Z,19.40
2023-05-07T12:23:19.492Z,19.40
2023-05-07T12:25:52.314Z,19.40
2023-05-07T12:28:20.360Z,19.40
2023-05-07T12:30:48.573Z,19.50
2023-05-07T12:33:19.391Z,19.50
2023-05-07T12:35:46.443Z,19.50
2023-05-07T12:38:14.393Z,19.60
2023-05-07T12:40:42.553Z,19.60
2023-05-07T12:43:16.794Z,19.60
2023-05-07T12:45:43.855Z,19.60
2023-05-07T12:48:11.857Z,19.60
2023-05-07T12:50:39.102Z,19.70
2023-05-07T12:53:07.421Z,19.70
2023-05-07T12:55:42.239Z,19.70
2023-05-07T12:58:09.523Z,19.80
2023-05-07T13:00:40.033Z,19.80
2023-05-07T13:03:07.084Z,19.90
2023-05-07T13:05:34.175Z,19.90
2023-05-07T13:08:01.365Z,19.90
2023-05-07T13:10:28.466Z,20.00
2023-05-07T13:12:55.977Z,20.00
2023-05-07T13:15:23.268Z,20.00
2023-05-07T13:17:50.332Z,20.00
2023-05-07T13:20:17.441Z,20.00
2023-05-07T13:22:44.410Z,20.00
2023-05-07T13:25:12.025Z,20.10
2023-05-07T13:27:39.190Z,20.10
2023-05-07T13:30:06.806Z,20.10
2023-05-07T13:32:33.866Z,20.20
2023-05-07T13:35:01.542Z,20.20
2023-05-07T13:37:28.568Z,20.20
2023-05-07T13:39:55.688Z,20.30
2023-05-07T13:42:22.739Z,20.30
2023-05-07T13:44:49.784Z,20.40
2023-05-07T13:47:17.609Z,20.40
2023-05-07T13:49:44.597Z,20.40
2023-05-07T13:52:12.361Z,20.40
2023-05-07T13:54:39.798Z,20.40
2023-05-07T13:57:06.798Z,20.40
2023-05-07T13:59:34.074Z,20.50
2023-05-07T14:02:01.114Z,20.50
2023-05-07T14:04:28.391Z,20.50
2023-05-07T14:06:55.578Z,20.50
2023-05-07T14:09:23.532Z,20.60
2023-05-07T14:11:52.524Z,20.60
2023-05-07T14:14:19.777Z,20.60
2023-05-07T14:16:48.514Z,20.60
2023-05-07T14:19:17.562Z,20.70
2023-05-07T14:21:44.506Z,20.70
2023-05-07T14:24:11.532Z,20.70
2023-05-07T14:26:38.638Z,20.80
2023-05-07T14:29:05.698Z,20.70
2023-05-07T14:31:34.261Z,20.80
2023-05-07T14:34:01.480Z,20.80
2023-05-07T14:36:29.308Z,20.70
2023-05-07T14:38:56.388Z,20.70
2023-05-07T14:41:23.333Z,20.70
2023-05-07T14:43:53.174Z,20.80
2023-05-07T14:46:20.850Z,20.90
2023-05-07T14:48:48.068Z,21.00
2023-05-07T14:51:15.510Z,21.10
2023-05-07T14:53:43.034Z,21.10
2023-05-07T14:56:10.060Z,21.10
2023-05-07T14:58:37.131Z,21.10
2023-05-07T15:01:04.654Z,21.10
2023-05-07T15:03:31.917Z,21.10
2023-05-07T15:05:58.998Z,21.00
2023-05-07T15:08:26.009Z,21.00
2023-05-07T15:10:53.131Z,21.00
2023-05-07T15:13:20.158Z,21.00
2023-05-07T15:15:47.753Z,21.10
2023-05-07T15:18:15.800Z,21.10
2023-05-07T15:20:43.412Z,21.10
2023-05-07T15:23:14.883Z,21.20
2023-05-07T15:25:42.314Z,21.20
2023-05-07T15:28:09.379Z,21.20
2023-05-07T15:30:36.349Z,21.30
2023-05-07T15:33:04.204Z,21.20
2023-05-07T15:35:31.271Z,21.10
2023-05-07T15:37:58.754Z,21.10
2023-05-07T15:40:25.885Z,21.10
2023-05-07T15:42:55.718Z,21.00
2023-05-07T15:45:22.938Z,21.00
2023-05-07T15:47:50.095Z,21.00
2023-05-07T15:50:17.146Z,21.00
2023-05-07T15:52:46.241Z,21.10
2023-05-07T15:55:13.589Z,21.10
2023-05-07T15:57:40.840Z,21.20
2023-05-07T16:00:09.954Z,21.20
2023-05-07T16:02:37.856Z,21.20
2023-05-07T16:05:05.188Z,21.10
2023-05-07T16:07:32.198Z,21.10
2023-05-07T16:09:59.416Z,21.10
2023-05-07T16:12:26.499Z,21.20
2023-05-07T16:14:53.463Z,21.20
2023-05-07T16:17:20.557Z,21.10
2023-05-07T16:19:47.755Z,21.10
2023-05-07T16:22:16.191Z,21.10
2023-05-07T16:24:43.687Z,21.10
2023-05-07T16:27:11.234Z,21.10
2023-05-07T16:29:38.206Z,21.10
2023-05-07T16:32:05.544Z,21.10
2023-05-07T16:34:32.888Z,21.10
2023-05-07T16:36:59.892Z,21.10
2023-05-07T16:39:27.035Z,21.10
2023-05-07T16:41:54.271Z,21.20
2023-05-07T16:44:21.279Z,21.10
2023-05-07T16:46:48.357Z,21.10
2023-05-07T16:49:15.388Z,21.10
2023-05-07T16:51:43.618Z,21.10
2023-05-07T16:54:10.684Z,21.10
2023-05-07T16:56:39.074Z,21.10
2023-05-07T16:59:07.579Z,21.10
2023-05-07T17:01:34.648Z,21.10
2023-05-07T17:04:01.770Z,21.10
2023-05-07T17:06:29.036Z,21.00
2023-05-07T17:08:56.046Z,21.10
2023-05-07T17:11:23.751Z,21.10
2023-05-07T17:13:52.388Z,21.10
2023-05-07T17:16:19.485Z,21.10
2023-05-07T17:18:46.490Z,21.10
2023-05-07T17:21:13.757Z,21.10
2023-05-07T17:23:40.790Z,21.10
2023-05-07T17:26:14.696Z,21.10
2023-05-07T17:28:41.811Z,21.20
2023-05-07T17:31:08.889Z,21.20
2023-05-07T17:33:36.850Z,21.10
2023-05-07T17:36:03.978Z,21.10
2023-05-07T17:38:32.180Z,21.10
2023-05-07T17:40:59.329Z,21.10
2023-05-07T17:43:26.480Z,21.10
2023-05-07T17:45:53.607Z,21.10
2023-05-07T17:48:20.974Z,21.10
2023-05-07T17:50:48.039Z,21.10
2023-05-07T17:53:15.180Z,21.00
2023-05-07T17:55:43.964Z,21.00
2023-05-07T17:58:11.643Z,21.00
2023-05-07T18:00:38.779Z,21.00
2023-05-07T18:03:05.796Z,21.00
2023-05-07T18:05:35.820Z,20.90
2023-05-07T18:08:02.879Z,20.90
2023-05-07T18:10:29.901Z,20.80
2023-05-07T18:12:57.100Z,20.80
2023-05-07T18:15:24.092Z,20.70
2023-05-07T18:17:51.063Z,20.60
2023-05-07T18:20:18.199Z,20.50
2023-05-07T18:22:45.171Z,20.50
2023-05-07T18:25:12.275Z,20.40
2023-05-07T18:27:39.366Z,20.40
2023-05-07T18:30:06.860Z,20.30
2023-05-07T18:32:33.876Z,20.30
2023-05-07T18:35:00.951Z,20.30
2023-05-07T18:37:27.960Z,20.20
2023-05-07T18:40:00.959Z,20.20
2023-05-07T18:42:29.734Z,20.20
2023-05-07T18:44:58.457Z,20.10
2023-05-07T18:47:25.503Z,20.10
2023-05-07T18:49:53.093Z,20.00
2023-05-07T18:52:22.235Z,19.90
2023-05-07T18:54:49.237Z,19.90
2023-05-07T18:57:17.096Z,19.90
2023-05-07T18:59:44.827Z,19.80
2023-05-07T19:02:14.213Z,19.70
2023-05-07T19:04:41.302Z,19.70
2023-05-07T19:07:08.367Z,19.70
2023-05-07T19:09:35.611Z,19.70
2023-05-07T19:12:02.930Z,19.60
2023-05-07T19:14:30.218Z,19.60
2023-05-07T19:16:57.604Z,19.50
2023-05-07T19:19:24.851Z,19.50
2023-05-07T19:21:51.942Z,19.40
2023-05-07T19:24:19.054Z,19.40
2023-05-07T19:26:45.997Z,19.30
2023-05-07T19:29:18.080Z,19.30
2023-05-07T19:31:45.737Z,19.30
2023-05-07T19:34:14.409Z,19.20
2023-05-07T19:36:41.633Z,19.20
2023-05-07T19:39:08.643Z,19.10
2023-05-07T19:41:35.672Z,19.10
2023-05-07T19:44:02.632Z,19.10
2023-05-07T19:46:29.638Z,19.00
2023-05-07T19:48:56.672Z,19.00
2023-05-07T19:51:23.860Z,19.00
2023-05-07T19:53:51.321Z,18.90
2023-05-07T19:56:18.335Z,18.90
2023-05-07T19:58:45.371Z,18.80
2023-05-07T20:01:12.485Z,18.80
2023-05-07T20:03:39.669Z,18.80
2023-05-07T20:06:06.856Z,18.80
2023-05-07T20:08:33.809Z,18.70
2023-05-07T20:11:01.051Z,18.70
2023-05-07T20:13:28.205Z,18.70
2023-05-07T20:15:58.955Z,18.70
2023-05-07T20:18:26.890Z,18.70
2023-05-07T20:20:53.939Z,18.60
2023-05-07T20:23:21.144Z,18.60
2023-05-07T20:25:48.312Z,18.50
2023-05-07T20:28:15.296Z,18.50
2023-05-07T20:30:42.292Z,18.50
2023-05-07T20:33:09.509Z,18.40
2023-05-07T20:35:36.793Z,18.40
2023-05-07T20:38:03.935Z,18.40
2023-05-07T20:40:34.056Z,18.30
2023-05-07T20:43:02.450Z,18.30
2023-05-07T20:45:29.673Z,18.30
2023-05-07T20:47:56.828Z,18.30
2023-05-07T20:50:25.006Z,18.20
2023-05-07T20:52:51.999Z,18.20
2023-05-07T20:55:19.103Z,18.20
2023-05-07T20:57:46.244Z,18.20
2023-05-07T21:00:13.916Z,18.20
2023-05-07T21:02:41.305Z,18.10
2023-05-07T21:05:08.630Z,18.10
2023-05-07T21:07:35.577Z,18.00
2023-05-07T21:10:02.640Z,18.00
2023-05-07T21:12:29.656Z,18.00
2023-05-07T21:14:56.995Z,17.90
2023-05-07T21:17:24.147Z,17.90
2023-05-07T21:19:51.415Z,17.80
2023-05-07T21:22:18.357Z,17.80
2023-05-07T21:24:45.396Z,17.70
2023-05-07T21:27:12.395Z,17.70
2023-05-07T21:29:39.845Z,17.70
2023-05-07T21:32:07.304Z,17.70
2023-05-07T21:34:34.241Z,17.60
2023-05-07T21:37:01.409Z,17.60
2023-05-07T21:39:28.460Z,17.60
2023-05-07T21:41:55.519Z,17.50
2023-05-07T21:44:23.346Z,17.50
2023-05-07T21:46:50.447Z,17.50
2023-05-07T21:49:17.528Z,17.50
2023-05-07T21:51:44.562Z,17.40
2023-05-07T21:54:12.186Z,17.40
2023-05-07T21:56:39.209Z,17.40
2023-05-07T21:59:06.136Z,17.40
2023-05-07T22:01:33.335Z,17.40
2023-05-07T22:04:00.651Z,17.30
2023-05-07T22:06:29.274Z,17.30
2023-05-07T22:08:56.289Z,17.30
2023-05-07T22:11:23.390Z,17.20
2023-05-07T22:13:50.354Z,17.20
2023-05-07T22:16:17.546Z,17.20
2023-05-07T22:18:44.495Z,17.10
2023-05-07T22:21:11.503Z,17.10
2023-05-07T22:23:38.476Z,17.10
2023-05-07T22:26:14.636Z,17.10
2023-05-07T22:28:41.911Z,17.00
2023-05-07T22:31:08.931Z,17.00
2023-05-07T22:33:36.406Z,17.00
2023-05-07T22:36:03.559Z,17.00
2023-05-07T22:38:31.297Z,17.00
2023-05-07T22:40:59.156Z,17.00
2023-05-07T22:43:26.385Z,17.00
2023-05-07T22:46:01.136Z,17.00
2023-05-07T22:48:28.675Z,17.00
2023-05-07T22:50:55.722Z,17.00
2023-05-07T22:53:22.816Z,17.00
2023-05-07T22:55:49.772Z,17.00
2023-05-07T22:58:16.834Z,16.90
2023-05-07T23:00:43.954Z,16.90
2023-05-07T23:03:11.119Z,16.90
2023-05-07T23:05:38.183Z,16.90
2023-05-07T23:08:05.294Z,16.90
2023-05-07T23:10:34.763Z,16.90
2023-05-07T23:13:01.889Z,16.90
2023-05-07T23:15:29.009Z,16.90
2023-05-07T23:17:56.139Z,16.90
2023-05-07T23:20:23.298Z,16.90
2023-05-07T23:22:53.182Z,16.90
2023-05-07T23:25:20.237Z,16.90
2023-05-07T23:27:50.115Z,16.90
2023-05-07T23:30:17.261Z,16.90
2023-05-07T23:32:44.359Z,16.80
2023-05-07T23:35:11.416Z,16.80
2023-05-07T23:37:39.595Z,16.80
2023-05-07T23:40:06.775Z,16.80
2023-05-07T23:42:33.800Z,16.80
2023-05-07T23:45:01.542Z,16.80
2023-05-07T23:47:28.854Z,16.80
2023-05-07T23:49:55.943Z,16.80
2023-05-07T23:52:22.884Z,16.80
2023-05-07T23:54:50.104Z,16.80
2023-05-07T23:57:17.048Z,16.90
2023-05-07T23:59:44.015Z,16.80
